• Join FlightAware (Why Join?)
  • Login
  • US Flag 
08:35PM EDT


 

Airport Tracker/Info


-or-


 

Live Flight TrackerFlight Track Log ✈ VH-HZE ✈ 13-Feb-2013 ✈ YMIA / MQL - YMEN / MEB

Flight Track Log - Related Links

Times and Time Zones

All times are in EST time to prevent confusion due to time zone crossing. See the VH-HZE flight status page for this flight to view local times or setup timezone preferences in your user account.

Time Position Orientation Groundspeed Altitude Reporting Facility
EST Latitude Longitude Course Direction KTS MPH feet Rate Location/Type
07:21PM -36.3480 144.0339 143° Southeast 7,500  Level Aus ATC (Calculated)
07:22PM -36.4077 144.0908 360° North 7,500  Level Aus ATC (Calculated)
07:22PM -36.4077 144.0908 143° Southeast 7,500  Level Aus ATC (Calculated)
07:24PM -36.5255 144.2032 143° Southeast  Level FlightAware Approximate
07:24PM -36.4637 144.1442 360° North 7,500  Level Aus ATC (Calculated)
07:24PM -36.4637 144.1442 142° Southeast 7,500  Level Aus ATC (Calculated)
07:25PM -36.6196 144.2934 142° Southeast  Level FlightAware Approximate
07:26PM -36.5610 144.2373 142° Southeast  Level FlightAware Approximate
07:26PM -36.5685 144.2445 142° Southeast 7,500  Level Aus ATC (Calculated)
07:27PM -36.6551 144.3276 142° Southeast  Level FlightAware Approximate
07:27PM -36.6143 144.2885 28° Northeast 7,500  Level Aus ATC (Calculated)
07:27PM -36.6143 144.2885 142° Southeast 7,500  Level Aus ATC (Calculated)
07:28PM -36.6736 144.3454 142° Southeast  Level FlightAware Approximate
07:29PM -36.7256 144.3955 142° Southeast  Level FlightAware Approximate
07:30PM -36.8196 144.4862 142° Southeast  Level FlightAware Approximate
07:31PM -36.9135 144.5771 142° Southeast  Level FlightAware Approximate
07:32PM -37.0074 144.6682 142° Southeast  Level FlightAware Approximate
07:33PM -37.1012 144.7596 142° Southeast  Level FlightAware Approximate
07:34PM -37.1949 144.8511 142° Southeast  Level FlightAware Approximate
07:34PM -36.8719 144.5367 142° Southeast 7,500  Level Aus ATC (Calculated)
07:35PM -37.2885 144.9429 142° Southeast  Level FlightAware Approximate
07:36PM -37.0549 144.7145 142° Southeast  Level FlightAware Approximate
07:37PM -37.1487 144.8059 142° Southeast  Level FlightAware Approximate
07:38PM -37.2423 144.8976 142° Southeast  Level FlightAware Approximate
07:39PM -37.3359 144.9895 142° Southeast  Level FlightAware Approximate
07:40PM -37.2423 144.8976 322° Northwest  Level FlightAware Approximate
07:41PM -37.3359 144.9895 142° Southeast  Level FlightAware Approximate
07:42PM -37.2423 144.8976 322° Northwest  Level FlightAware Approximate
07:42PM -37.1931 144.8494 142° Southeast 7,500  Level Aus ATC (Calculated)
07:43PM -37.3359 144.9895 142° Southeast  Level FlightAware Approximate
07:44PM -37.2977 144.9519 142° Southeast  Level FlightAware Approximate
07:44PM -37.3000 144.9542 142° Southeast 7,500  Level Aus ATC (Calculated)
07:45PM -37.3912 145.0440 142° Southeast  Level FlightAware Approximate
07:46PM -37.4327 144.9542 180° South  Level FlightAware Approximate
07:47PM -37.3139 144.9542 North  Level FlightAware Approximate
07:48PM -37.1951 144.9542 North  Level FlightAware Approximate
07:49PM -37.3139 144.9542 180° South  Level FlightAware Approximate
07:50PM -37.1951 144.9542 North  Level FlightAware Approximate
07:50PM -37.4938 145.0916 331° Northwest 3,500  Level Aus ATC (Calculated)
07:51PM -37.3903 145.0181 331° Northwest  Level FlightAware Approximate
07:52PM -37.2867 144.9448 331° Northwest  Level FlightAware Approximate
07:53PM -37.3903 145.0181 151° Southeast  Level FlightAware Approximate
07:54PM -37.3345 144.9786 151° Southeast  Level FlightAware Approximate
07:54PM -37.6433 145.0198 228° Southwest 300  Level Aus ATC (Calculated)
07:56PM -37.7281 144.9019 48° Northeast  Level Estimated